Time;durP1;ratioP1;P1;durP2;ratioP2;P2;SDS_P1;SDS_P2;PMS_P1;PMS_P2;Temp;Humidity;BMP_temperature;BMP_pressure;BME280_temperature;BME280_humidity;BME280_pressure;Samples;Min_cycle;Max_cycle;Signal;HPM_P1;HPM_P2
2021/07/14 00:00:20;;;;;;;16.45;13.45;;;;;;;20.81;75.58;100304.29;1787624;79;21364;-72
2021/07/14 00:02:50;;;;;;;17.40;14.10;;;;;;;20.79;75.51;100298.28;1797899;79;22794;-73
2021/07/14 00:05:18;;;;;;;15.48;13.75;;;;;;;20.79;75.46;100299.62;1777729;79;20942;-72
2021/07/14 00:07:47;;;;;;;16.48;14.20;;;;;;;20.78;75.50;100295.28;1777834;79;21557;-72
2021/07/14 00:10:31;;;;;;;18.00;14.50;;;;;;;20.77;75.55;100296.30;1794121;79;21032;-72
2021/07/14 00:13:07;;;;;;;15.53;13.65;;;;;;;20.75;75.62;100298.33;1775846;80;21415;-72
2021/07/14 00:23:34;;;;;;;16.60;14.87;;;;;;;20.65;76.17;100306.68;1809196;78;21090;-72
2021/07/14 00:26:00;;;;;;;18.98;15.65;;;;;;;20.64;76.37;100301.51;1815118;78;20932;-72
2021/07/14 00:28:28;;;;;;;19.05;16.00;;;;;;;20.62;76.50;100303.05;1809788;77;21824;-73
2021/07/14 00:30:56;;;;;;;18.07;16.23;;;;;;;20.62;76.63;100306.23;1796347;77;21402;-73
2021/07/14 00:33:24;;;;;;;19.95;16.40;;;;;;;20.60;76.96;100304.27;1797128;77;21020;-74
2021/07/14 00:35:50;;;;;;;18.73;16.30;;;;;;;20.57;77.31;100304.97;1791517;78;21383;-73
2021/07/14 00:38:18;;;;;;;20.32;17.23;;;;;;;20.57;77.58;100308.98;1806485;77;21031;-73
2021/07/14 00:40:45;;;;;;;21.37;17.98;;;;;;;20.60;77.94;100305.60;1810830;77;22175;-73
2021/07/14 00:43:12;;;;;;;19.75;17.35;;;;;;;20.58;78.17;100307.97;1811667;78;21022;-73
2021/07/14 00:45:38;;;;;;;21.33;18.02;;;;;;;20.61;78.50;100309.95;1818753;78;20944;-73
2021/07/14 00:48:05;;;;;;;20.60;17.05;;;;;;;20.62;78.78;100303.05;1820887;78;20964;-74
2021/07/14 00:50:33;;;;;;;18.82;16.93;;;;;;;20.64;78.98;100302.84;1811749;78;21431;-74
2021/07/14 00:53:00;;;;;;;19.42;17.27;;;;;;;20.65;79.06;100305.84;1804831;77;22225;-72
2021/07/14 00:55:26;;;;;;;20.08;17.57;;;;;;;20.66;79.14;100304.86;1815591;77;20917;-73
2021/07/14 00:57:52;;;;;;;20.48;17.27;;;;;;;20.68;79.18;100306.33;1818084;78;21031;-73
2021/07/14 01:00:19;;;;;;;20.27;17.48;;;;;;;20.71;79.15;100311.81;1785733;78;21059;-74
2021/07/14 01:02:45;;;;;;;20.75;18.60;;;;;;;20.70;79.19;100314.19;1775718;78;20996;-72
2021/07/14 01:05:36;;;;;;;22.25;19.37;;;;;;;20.70;79.27;100312.84;1792533;78;21767;-73
2021/07/14 01:08:17;;;;;;;20.02;17.57;;;;;;;20.72;79.39;100308.94;1794593;78;20988;-72
2021/07/14 01:10:50;;;;;;;19.17;17.20;;;;;;;20.71;79.34;100307.28;1797504;77;21410;-72
2021/07/14 01:13:35;;;;;;;21.25;18.00;;;;;;;20.71;79.30;100305.94;1768655;77;21016;-72
2021/07/14 01:16:10;;;;;;;21.90;18.60;;;;;;;20.71;79.37;100308.63;1816938;77;20934;-72
2021/07/14 01:18:57;;;;;;;23.12;18.92;;;;;;;20.71;79.44;100307.80;1820795;78;21885;-74
2021/07/14 01:21:38;;;;;;;21.37;19.05;;;;;;;20.72;79.62;100308.11;1795549;77;21529;-72
2021/07/14 01:24:25;;;;;;;23.25;20.30;;;;;;;20.74;79.67;100310.09;1788653;80;21529;-72
2021/07/14 01:27:06;;;;;;;25.23;19.27;;;;;;;20.77;79.72;100310.56;1802315;78;21019;-72
2021/07/14 01:29:34;;;;;;;21.62;18.48;;;;;;;20.78;79.80;100310.05;1821024;77;20991;-73
2021/07/14 01:32:03;;;;;;;20.95;18.57;;;;;;;20.77;79.86;100311.07;1797021;77;22647;-72
2021/07/14 01:34:30;;;;;;;20.55;18.45;;;;;;;20.75;79.94;100313.09;1809088;78;21617;-72
2021/07/14 01:36:57;;;;;;;21.60;18.48;;;;;;;20.72;79.94;100312.97;1821227;77;20991;-73
2021/07/14 01:39:27;;;;;;;22.85;19.75;;;;;;;20.72;79.94;100318.84;1810302;78;20995;-73
2021/07/14 01:41:53;;;;;;;22.25;19.90;;;;;;;20.71;80.04;100316.67;1797847;77;21060;-73
2021/07/14 01:44:20;;;;;;;22.20;19.80;;;;;;;20.73;80.23;100319.99;1757043;78;22193;-73
2021/07/14 01:46:46;;;;;;;21.95;19.52;;;;;;;20.74;80.29;100317.63;1748588;78;21074;-73
2021/07/14 01:49:16;;;;;;;25.77;19.50;;;;;;;20.73;80.33;100323.19;1816268;78;21426;-73
2021/07/14 01:51:48;;;;;;;24.77;19.70;;;;;;;20.72;80.45;100321.02;1790442;78;21228;-74
2021/07/14 01:54:15;;;;;;;23.50;19.95;;;;;;;20.74;80.59;100323.51;1773351;77;21079;-73
2021/07/14 01:56:42;;;;;;;21.15;18.90;;;;;;;20.74;80.65;100316.28;1788586;80;22226;-73
2021/07/14 01:59:10;;;;;;;22.50;19.23;;;;;;;20.76;80.64;100324.17;1808713;77;20932;-74
2021/07/14 02:01:40;;;;;;;21.73;19.45;;;;;;;20.75;80.62;100322.00;1794227;78;21031;-71
2021/07/14 02:06:53;;;;;;;21.50;19.15;;;;;;;20.78;80.67;100320.78;1809808;77;21003;-74
2021/07/14 02:09:20;;;;;;;22.35;18.80;;;;;;;20.78;80.69;100322.95;1816256;78;21805;-72
2021/07/14 02:11:47;;;;;;;21.55;19.27;;;;;;;20.78;80.75;100324.81;1814735;77;21375;-73
2021/07/14 02:14:20;;;;;;;21.93;19.73;;;;;;;20.78;80.83;100328.33;1786767;78;20948;-73
2021/07/14 02:16:49;;;;;;;21.60;19.37;;;;;;;20.78;80.81;100323.47;1795123;78;20956;-73
2021/07/14 02:19:17;;;;;;;22.60;19.70;;;;;;;20.77;80.85;100320.47;1811249;78;21561;-73
2021/07/14 02:21:44;;;;;;;23.77;19.75;;;;;;;20.77;80.89;100325.32;1798827;78;21798;-72
2021/07/14 02:24:13;;;;;;;22.15;19.85;;;;;;;20.77;80.90;100328.52;1790224;78;21154;-72
2021/07/14 02:26:42;;;;;;;22.13;19.80;;;;;;;20.79;80.85;100334.52;1807715;79;21023;-72
2021/07/14 02:29:09;;;;;;;23.50;20.77;;;;;;;20.80;80.81;100330.81;1805955;79;20993;-73
2021/07/14 02:31:36;;;;;;;23.55;20.85;;;;;;;20.81;80.75;100331.13;1796915;77;20945;-72
2021/07/14 02:34:03;;;;;;;21.42;19.15;;;;;;;20.84;80.68;100331.61;1776626;79;22637;-72
2021/07/14 02:36:31;;;;;;;21.45;19.25;;;;;;;20.83;80.64;100335.80;1776944;79;20921;-72
2021/07/14 02:39:03;;;;;;;21.87;18.92;;;;;;;20.82;80.58;100332.28;1777317;78;20937;-72
2021/07/14 02:41:45;;;;;;;21.42;19.23;;;;;;;20.83;80.58;100333.94;1799157;79;20929;-72
2021/07/14 02:44:11;;;;;;;22.25;18.82;;;;;;;20.84;80.50;100336.98;1779104;79;20992;-72
2021/07/14 02:46:42;;;;;;;20.20;17.90;;;;;;;20.84;80.47;100332.95;1803956;79;21809;-72
2021/07/14 02:49:12;;;;;;;22.60;20.17;;;;;;;20.87;80.43;100335.75;1801352;79;20976;-73
2021/07/14 02:51:40;;;;;;;21.68;19.42;;;;;;;20.88;80.37;100338.76;1785945;79;21023;-72
2021/07/14 02:54:25;;;;;;;24.20;19.42;;;;;;;20.89;80.38;100337.73;1803017;79;20965;-73
2021/07/14 02:57:01;;;;;;;23.90;19.35;;;;;;;20.90;80.39;100338.05;1778839;79;21047;-72
2021/07/14 02:59:35;;;;;;;21.12;18.77;;;;;;;20.89;80.43;100333.70;1783410;78;21746;-72
2021/07/14 03:02:01;;;;;;;21.07;18.70;;;;;;;20.92;80.49;100332.48;1794045;79;21031;-73
2021/07/14 03:04:36;;;;;;;20.23;17.98;;;;;;;20.94;80.51;100334.47;1776871;79;20997;-73
2021/07/14 03:07:07;;;;;;;20.70;18.55;;;;;;;20.96;80.58;100335.96;1776006;80;21055;-73
2021/07/14 03:09:37;;;;;;;21.75;19.55;;;;;;;21.00;80.75;100337.74;1777069;79;20996;-75
2021/07/14 03:12:13;;;;;;;20.83;18.70;;;;;;;21.03;80.88;100332.81;1801065;79;20977;-73
2021/07/14 03:14:53;;;;;;;21.07;19.02;;;;;;;21.07;80.98;100330.59;1799335;79;21035;-73
2021/07/14 03:17:21;;;;;;;20.10;18.07;;;;;;;21.11;81.07;100335.89;1776214;79;20953;-74
2021/07/14 03:19:49;;;;;;;21.77;18.48;;;;;;;21.13;81.12;100340.08;1776844;79;20945;-73
2021/07/14 03:22:16;;;;;;;21.17;18.30;;;;;;;21.18;81.11;100341.34;1793225;79;21032;-72
2021/07/14 03:24:44;;;;;;;21.95;18.25;;;;;;;21.22;81.11;100344.78;1780265;79;20984;-73
2021/07/14 03:27:11;;;;;;;20.35;18.25;;;;;;;21.26;81.13;100338.53;1789558;78;20980;-72
2021/07/14 03:29:38;;;;;;;20.55;17.60;;;;;;;21.31;81.12;100340.98;1816123;78;21435;-73
2021/07/14 03:32:06;;;;;;;20.27;18.17;;;;;;;21.36;81.10;100351.16;1787438;78;21406;-73
2021/07/14 03:34:32;;;;;;;19.90;17.73;;;;;;;21.41;81.10;100353.58;1788856;80;20993;-72
2021/07/14 03:37:04;;;;;;;20.25;18.07;;;;;;;21.46;81.10;100348.98;1789963;78;22176;-72
2021/07/14 03:39:28;;;;;;;22.58;18.02;;;;;;;21.53;81.28;100351.22;1811774;77;20949;-73
2021/07/14 03:41:54;;;;;;;19.80;17.67;;;;;;;21.60;81.36;100347.23;1802891;77;21015;-72
2021/07/14 03:44:20;;;;;;;19.25;16.93;;;;;;;21.67;81.52;100352.16;1817840;79;20945;-72
2021/07/14 03:46:48;;;;;;;19.15;17.25;;;;;;;21.74;81.61;100353.05;1817087;78;20996;-72
2021/07/14 03:49:14;;;;;;;18.48;16.65;;;;;;;21.81;81.67;100350.39;1797739;77;21865;-73
2021/07/14 03:51:42;;;;;;;18.85;16.85;;;;;;;21.89;81.82;100356.97;1802999;78;20928;-73
2021/07/14 03:54:11;;;;;;;18.95;16.50;;;;;;;21.96;81.88;100360.55;1789456;78;21031;-72
2021/07/14 03:56:38;;;;;;;20.48;17.45;;;;;;;22.03;82.02;100356.56;1789447;78;20995;-75
2021/07/14 03:59:05;;;;;;;19.00;16.82;;;;;;;22.12;82.21;100362.14;1789861;77;20992;-76
2021/07/14 04:01:31;;;;;;;18.50;16.60;;;;;;;22.19;82.32;100365.16;1775730;77;21798;-74
2021/07/14 04:03:57;;;;;;;18.75;16.87;;;;;;;22.28;82.38;100359.11;1790182;78;20938;-74
2021/07/14 04:06:24;;;;;;;18.02;16.32;;;;;;;22.38;82.51;100356.06;1790547;78;21438;-74
2021/07/14 04:09:18;;;;;;;18.45;15.48;;;;;;;22.46;82.61;100355.90;1797261;77;21294;-74
2021/07/14 04:11:50;;;;;;;17.48;14.23;;;;;;;22.56;82.69;100359.88;1800923;77;21016;-73
2021/07/14 04:14:16;;;;;;;16.82;15.00;;;;;;;22.68;82.82;100361.52;1788200;78;21787;-73
2021/07/14 04:16:42;;;;;;;15.40;13.80;;;;;;;22.78;82.81;100356.58;1804525;77;21031;-75
2021/07/14 04:19:11;;;;;;;16.12;14.43;;;;;;;22.88;82.73;100356.75;1812954;77;21452;-78
2021/07/14 04:21:38;;;;;;;20.48;14.23;;;;;;;22.98;82.67;100362.06;1793910;77;21003;-75
2021/07/14 04:24:05;;;;;;;15.20;13.45;;;;;;;23.09;82.59;100364.67;1819355;78;20988;-74
2021/07/14 04:26:33;;;;;;;14.35;12.58;;;;;;;23.19;82.32;100364.28;1808973;78;21764;-73
2021/07/14 04:29:02;;;;;;;14.93;12.35;;;;;;;23.30;82.05;100365.02;1806465;79;21388;-74
2021/07/14 04:31:29;;;;;;;12.93;11.65;;;;;;;23.42;81.70;100367.41;1787105;79;20992;-74
2021/07/14 04:33:55;;;;;;;12.70;11.50;;;;;;;23.53;81.17;100365.97;1803887;79;20980;-75
2021/07/14 04:36:21;;;;;;;13.48;11.43;;;;;;;23.64;80.71;100368.08;1810689;77;21388;-75
2021/07/14 04:38:49;;;;;;;11.93;10.68;;;;;;;23.76;80.21;100363.74;1807847;78;21715;-74
2021/07/14 04:41:15;;;;;;;11.90;10.70;;;;;;;23.86;79.30;100365.50;1780551;78;20976;-74
2021/07/14 04:43:42;;;;;;;11.22;10.13;;;;;;;23.96;78.47;100367.25;1784725;79;21004;-74
2021/07/14 04:46:08;;;;;;;11.88;10.30;;;;;;;24.08;78.08;100362.56;1777411;79;20941;-75
2021/07/14 04:48:34;;;;;;;13.65;10.05;;;;;;;24.18;77.51;100364.30;1776956;79;20940;-73
2021/07/14 04:51:01;;;;;;;12.18;8.95;;;;;;;24.27;77.05;100367.92;1776633;79;21821;-74
2021/07/14 04:53:27;;;;;;;9.95;8.85;;;;;;;24.36;76.70;100361.80;1789609;79;20981;-73
2021/07/14 04:55:54;;;;;;;10.20;9.20;;;;;;;24.45;76.07;100363.23;1775966;80;21020;-73
2021/07/14 04:58:20;;;;;;;10.08;8.93;;;;;;;24.54;75.43;100367.36;1785112;79;20953;-74
2021/07/14 05:00:47;;;;;;;10.85;8.58;;;;;;;24.64;74.84;100367.42;1807712;79;21001;-73
2021/07/14 05:03:13;;;;;;;11.90;8.45;;;;;;;24.73;73.86;100368.84;1799787;79;21631;-74
2021/07/14 05:05:39;;;;;;;9.50;8.50;;;;;;;24.79;73.13;100366.09;1804884;79;20930;-74
2021/07/14 05:08:06;;;;;;;9.38;8.55;;;;;;;24.87;72.34;100371.78;1807954;79;21040;-74
2021/07/14 05:10:32;;;;;;;11.55;8.65;;;;;;;24.94;71.64;100369.88;1805578;79;21435;-74
2021/07/14 05:12:59;;;;;;;12.55;8.88;;;;;;;25.00;71.23;100365.50;1799197;79;20949;-75
2021/07/14 05:15:26;;;;;;;8.50;7.25;;;;;;;25.09;70.97;100370.47;1792933;79;21805;-74
2021/07/14 05:17:52;;;;;;;8.50;7.70;;;;;;;25.18;70.41;100375.06;1784795;78;21012;-75
2021/07/14 05:20:19;;;;;;;9.13;7.30;;;;;;;25.24;69.60;100374.73;1782644;79;21360;-74
2021/07/14 05:22:46;;;;;;;8.68;7.53;;;;;;;25.30;69.19;100374.70;1803701;78;20984;-74
2021/07/14 05:25:12;;;;;;;9.50;7.72;;;;;;;25.37;68.62;100375.46;1818266;77;21051;-74
2021/07/14 05:27:40;;;;;;;8.25;7.53;;;;;;;25.45;68.28;100377.60;1807666;77;21804;-75
2021/07/14 05:30:08;;;;;;;7.78;6.85;;;;;;;25.52;68.08;100377.04;1793528;77;20987;-74
2021/07/14 05:32:35;;;;;;;9.55;7.15;;;;;;;25.59;67.53;100376.47;1796757;77;20993;-74
2021/07/14 05:35:02;;;;;;;7.37;6.67;;;;;;;25.68;67.58;100371.92;1790924;77;20979;-73
2021/07/14 05:37:29;;;;;;;7.53;6.70;;;;;;;25.77;66.53;100364.89;1789625;77;20952;-73
2021/07/14 05:39:55;;;;;;;8.15;7.28;;;;;;;25.83;66.01;100368.90;1789681;78;22094;-73
2021/07/14 05:42:22;;;;;;;8.40;7.20;;;;;;;25.88;65.67;100375.02;1797653;77;20973;-74
2021/07/14 05:44:48;;;;;;;7.90;6.53;;;;;;;25.94;65.95;100372.23;1788968;80;21388;-74
2021/07/14 05:47:15;;;;;;;7.65;6.85;;;;;;;26.03;65.38;100375.48;1819483;77;21372;-73
2021/07/14 05:49:43;;;;;;;7.22;6.53;;;;;;;26.12;65.08;100380.08;1790348;77;20975;-74
2021/07/14 05:52:12;;;;;;;7.35;6.65;;;;;;;26.16;64.34;100369.95;1798498;77;21747;-73
2021/07/14 05:54:38;;;;;;;7.28;6.47;;;;;;;26.22;63.59;100372.27;1819194;77;20921;-72
2021/07/14 05:57:04;;;;;;;8.28;6.30;;;;;;;26.29;63.09;100375.75;1820891;78;20999;-72
2021/07/14 05:59:31;;;;;;;9.03;6.92;;;;;;;26.37;62.86;100378.20;1806675;78;20953;-73
2021/07/14 06:01:57;;;;;;;8.28;6.30;;;;;;;26.45;62.81;100373.02;1788704;80;20984;-73
2021/07/14 06:04:23;;;;;;;7.47;6.62;;;;;;;26.52;61.84;100368.32;1792303;77;22154;-73
2021/07/14 06:06:50;;;;;;;7.53;6.80;;;;;;;26.60;61.47;100376.68;1818638;78;20924;-73
2021/07/14 06:09:18;;;;;;;7.00;6.17;;;;;;;26.65;61.07;100368.71;1820832;78;20941;-74
2021/07/14 06:11:44;;;;;;;7.22;6.47;;;;;;;26.73;60.99;100376.50;1805995;78;21012;-76
2021/07/14 06:14:11;;;;;;;9.65;6.85;;;;;;;26.81;61.08;100372.95;1765928;80;20957;-75
2021/07/14 06:16:37;;;;;;;7.55;6.10;;;;;;;26.89;60.36;100372.35;1817349;77;22182;-74
2021/07/14 06:19:05;;;;;;;7.70;6.30;;;;;;;26.93;60.07;100370.86;1788510;80;20972;-78
2021/07/14 06:21:33;;;;;;;7.53;6.47;;;;;;;27.00;60.32;100371.57;1791971;77;21031;-76
2021/07/14 06:23:59;;;;;;;7.25;6.55;;;;;;;27.09;60.51;100373.77;1798924;77;20941;-76
2021/07/14 06:26:25;;;;;;;6.37;5.78;;;;;;;27.17;59.54;100373.15;1811113;78;21008;-76
2021/07/14 06:28:52;;;;;;;7.37;6.40;;;;;;;27.24;59.16;100372.00;1787348;79;23340;-76
2021/07/14 06:31:19;;;;;;;6.53;5.83;;;;;;;27.31;58.67;100367.31;1798873;78;21020;-78
2021/07/14 06:33:46;;;;;;;6.33;5.72;;;;;;;27.35;57.87;100373.91;1787618;78;21056;-76
2021/07/14 06:36:12;;;;;;;6.08;5.47;;;;;;;27.39;58.22;100372.37;1766958;79;20988;-79
2021/07/14 06:38:38;;;;;;;6.97;5.67;;;;;;;27.46;57.40;100376.88;1798467;79;21023;-80
2021/07/14 06:41:07;;;;;;;6.30;5.45;;;;;;;27.51;57.05;100377.86;1790561;78;21813;-79
2021/07/14 06:43:49;;;;;;;6.10;5.60;;;;;;;27.55;56.16;100376.31;1803558;78;20992;-79
2021/07/14 06:46:17;;;;;;;7.03;5.30;;;;;;;27.58;55.55;100379.91;1807925;79;21024;-78
2021/07/14 06:48:43;;;;;;;6.28;5.30;;;;;;;27.61;54.64;100373.21;1795421;79;21455;-78
2021/07/14 06:51:10;;;;;;;7.00;5.45;;;;;;;27.66;54.32;100376.06;1800770;79;21463;-79
2021/07/14 06:53:38;;;;;;;7.58;5.78;;;;;;;27.73;54.41;100376.80;1792568;79;21798;-79
2021/07/14 06:56:05;;;;;;;6.80;5.35;;;;;;;27.82;54.83;100374.56;1781801;79;21015;-78
2021/07/14 06:58:33;;;;;;;6.47;5.78;;;;;;;27.92;55.15;100381.06;1800755;78;20981;-78
2021/07/14 07:00:59;;;;;;;8.18;5.62;;;;;;;28.04;55.16;100384.30;1802829;79;20918;-79
2021/07/14 07:03:26;;;;;;;12.03;5.53;;;;;;;28.11;54.79;100380.94;1804386;79;21066;-80
2021/07/14 07:05:52;;;;;;;7.45;5.28;;;;;;;28.18;54.49;100378.91;1785363;79;21778;-78
2021/07/14 07:08:19;;;;;;;6.37;5.72;;;;;;;28.27;53.81;100378.02;1795049;78;21135;-77
2021/07/14 07:10:47;;;;;;;6.80;5.15;;;;;;;28.36;54.36;100378.80;1786657;79;21411;-79
2021/07/14 07:13:16;;;;;;;6.33;5.22;;;;;;;28.45;54.19;100378.73;1783950;79;21479;-78
2021/07/14 07:15:46;;;;;;;10.15;5.30;;;;;;;28.51;53.25;100377.79;1762948;80;21082;-79
2021/07/14 07:18:12;;;;;;;6.20;5.58;;;;;;;28.54;52.87;100375.11;1802076;78;21807;-78
2021/07/14 07:20:39;;;;;;;7.53;5.33;;;;;;;28.55;52.72;100377.30;1797829;78;21523;-80
2021/07/14 07:23:06;;;;;;;12.43;5.55;;;;;;;28.59;52.69;100377.13;1783331;78;21499;-81
2021/07/14 07:25:34;;;;;;;8.58;6.55;;;;;;;28.69;53.28;100375.44;1776439;79;21448;-80
2021/07/14 07:28:01;;;;;;;6.33;5.70;;;;;;;28.79;53.17;100374.28;1797311;78;21476;-79
2021/07/14 07:30:28;;;;;;;8.20;5.67;;;;;;;28.88;51.85;100373.38;1794553;79;22442;-80
2021/07/14 07:32:55;;;;;;;6.35;5.37;;;;;;;28.98;52.36;100373.59;1800336;79;21554;-82
2021/07/14 07:35:22;;;;;;;8.18;6.05;;;;;;;29.08;51.71;100370.25;1784183;79;21017;-80
2021/07/14 07:37:48;;;;;;;9.90;5.75;;;;;;;29.14;51.20;100369.78;1807533;78;21003;-78
2021/07/14 07:40:15;;;;;;;9.20;5.72;;;;;;;29.16;50.20;100369.86;1785068;79;21043;-78
2021/07/14 07:42:43;;;;;;;8.83;5.40;;;;;;;29.23;50.35;100365.61;1819803;78;21755;-79
2021/07/14 07:45:10;;;;;;;12.90;5.47;;;;;;;29.32;50.00;100368.22;1799277;77;20992;-79
2021/07/14 07:47:37;;;;;;;10.35;5.45;;;;;;;29.39;47.18;100365.34;1797524;78;21033;-81
2021/07/14 07:50:06;;;;;;;14.13;6.33;;;;;;;29.39;47.18;100365.34;1802679;79;20992;-81
2021/07/14 07:52:33;;;;;;;10.13;5.40;;;;;;;29.42;47.38;100357.50;1805500;79;20971;-81
2021/07/14 07:55:00;;;;;;;7.08;5.90;;;;;;;29.51;47.41;100357.42;1780675;80;21819;-81
2021/07/14 07:57:28;;;;;;;9.93;7.25;;;;;;;29.56;46.23;100358.88;1789639;79;21007;-81
2021/07/14 07:59:55;;;;;;;13.18;6.30;;;;;;;29.62;45.77;100358.41;1791423;79;21134;-80
2021/07/14 08:02:21;;;;;;;8.55;5.47;;;;;;;29.67;45.58;100359.05;1806841;79;21008;-79
2021/07/14 08:04:49;;;;;;;13.22;5.95;;;;;;;29.72;46.39;100359.94;1794290;78;21004;-77
2021/07/14 08:07:16;;;;;;;6.92;5.00;;;;;;;29.83;47.33;100358.22;1789236;78;22154;-78
2021/07/14 08:09:42;;;;;;;7.17;5.33;;;;;;;29.98;47.12;100357.07;1782198;78;21005;-77
2021/07/14 08:12:09;;;;;;;12.70;5.72;;;;;;;29.98;47.12;100357.07;1785957;78;21066;-77
2021/07/14 08:14:37;;;;;;;7.80;5.12;;;;;;;30.14;46.06;100354.89;1783586;78;21087;-77
2021/07/14 08:17:05;;;;;;;6.17;5.40;;;;;;;30.14;46.06;100354.89;1798085;78;21415;-73
2021/07/14 08:19:32;;;;;;;21.65;5.62;;;;;;;30.13;45.12;100351.89;1788259;78;22473;-74
2021/07/14 08:21:59;;;;;;;6.50;4.83;;;;;;;30.14;46.11;100349.45;1789553;79;20964;-75
2021/07/14 08:24:25;;;;;;;13.50;5.72;;;;;;;30.18;45.92;100345.13;1802023;79;21004;-75
2021/07/14 08:26:51;;;;;;;10.08;5.50;;;;;;;30.24;45.55;100347.94;1799151;78;21046;-77
2021/07/14 08:29:18;;;;;;;11.45;5.45;;;;;;;30.28;45.63;100351.80;1801846;77;21047;-76
2021/07/14 08:31:46;;;;;;;7.92;5.40;;;;;;;30.35;46.09;100349.72;1802456;77;21720;-77
2021/07/14 08:34:13;;;;;;;9.13;4.65;;;;;;;30.41;45.62;100351.44;1798131;77;22085;-75
2021/07/14 08:36:41;;;;;;;12.18;5.12;;;;;;;30.41;44.32;100350.08;1812878;78;21020;-78
2021/07/14 08:39:08;;;;;;;8.90;5.05;;;;;;;30.44;45.45;100355.02;1812118;77;21019;-76
2021/07/14 08:41:35;;;;;;;8.70;4.97;;;;;;;30.55;45.61;100349.15;1806715;77;21562;-75
2021/07/14 08:44:01;;;;;;;10.23;6.97;;;;;;;30.63;45.51;100348.70;1792713;78;22791;-76
2021/07/14 08:46:28;;;;;;;7.30;4.30;;;;;;;30.72;45.76;100345.30;1801412;77;21450;-76
2021/07/14 08:48:54;;;;;;;8.65;4.30;;;;;;;30.84;42.19;100342.97;1810111;77;21055;-79
2021/07/14 08:51:22;;;;;;;9.85;4.15;;;;;;;30.88;42.20;100344.09;1804873;77;21038;-75
2021/07/14 08:53:49;;;;;;;9.23;4.70;;;;;;;30.91;43.18;100347.15;1788941;78;21043;-76
2021/07/14 08:56:16;;;;;;;6.95;4.10;;;;;;;31.00;42.62;100344.79;1806947;77;21748;-76
2021/07/14 08:58:43;;;;;;;7.62;4.28;;;;;;;31.02;41.81;100344.80;1787264;78;21034;-76
2021/07/14 09:01:09;;;;;;;5.72;4.00;;;;;;;30.99;41.77;100341.78;1786596;80;21070;-76
2021/07/14 09:03:36;;;;;;;9.40;4.67;;;;;;;31.06;42.82;100342.37;1793723;77;21067;-76
2021/07/14 09:06:03;;;;;;;11.60;4.20;;;;;;;31.17;42.86;100344.12;1794593;77;21083;-75
2021/07/14 09:08:29;;;;;;;6.42;4.42;;;;;;;31.30;43.31;100351.93;1787358;80;21766;-75
2021/07/14 09:10:58;;;;;;;8.80;4.80;;;;;;;31.44;42.72;100347.39;1787304;80;21028;-76
2021/07/14 09:13:37;;;;;;;5.67;4.40;;;;;;;31.50;42.78;100342.27;1807198;77;21056;-76
2021/07/14 09:16:06;;;;;;;7.28;3.90;;;;;;;31.62;43.03;100348.36;1819598;78;21015;-75
2021/07/14 09:18:32;;;;;;;12.18;4.47;;;;;;;31.74;42.76;100342.16;1819778;78;21455;-74
2021/07/14 09:21:02;;;;;;;15.40;4.87;;;;;;;31.86;42.96;100344.77;1817171;78;21008;-76
2021/07/14 09:23:30;;;;;;;10.00;4.30;;;;;;;31.95;41.10;100343.73;1819734;78;21064;-78
2021/07/14 09:26:03;;;;;;;12.47;4.20;;;;;;;32.02;40.54;100352.48;1799667;77;21304;-79
2021/07/14 09:28:33;;;;;;;7.70;3.92;;;;;;;32.05;39.59;100339.69;1798964;78;21079;-77
2021/07/14 09:31:07;;;;;;;16.42;4.08;;;;;;;32.13;39.71;100341.89;1819625;78;21494;-76
2021/07/14 09:33:34;;;;;;;12.88;4.87;;;;;;;32.14;38.53;100344.39;1812789;78;21765;-79
2021/07/14 09:36:03;;;;;;;6.28;4.92;;;;;;;32.24;40.22;100340.06;1817961;78;20969;-77
2021/07/14 09:38:32;;;;;;;7.78;5.03;;;;;;;32.34;40.07;100341.52;1811513;78;21027;-81
2021/07/14 09:41:07;;;;;;;8.08;5.70;;;;;;;32.43;40.81;100342.64;1796074;77;21030;-80
2021/07/14 09:43:35;;;;;;;11.93;5.83;;;;;;;32.54;41.22;100340.77;1807431;77;20988;-82
2021/07/14 09:46:06;;;;;;;6.22;5.70;;;;;;;32.53;40.95;100340.50;1795525;78;21697;-80
2021/07/14 09:48:39;;;;;;;11.03;6.05;;;;;;;32.49;41.95;100338.00;1790737;77;22404;-78
2021/07/14 09:51:20;;;;;;;12.15;5.97;;;;;;;32.60;42.07;100341.05;1793411;77;21423;-78
2021/07/14 09:53:49;;;;;;;8.23;6.35;;;;;;;32.64;41.02;100340.26;1800976;77;21557;-79
2021/07/14 09:56:26;;;;;;;14.40;6.28;;;;;;;32.64;41.24;100335.34;1795361;78;21038;-80
2021/07/14 09:59:07;;;;;;;12.35;6.15;;;;;;;32.75;41.82;100335.09;1796892;77;21881;-81
2021/07/14 10:01:45;;;;;;;12.65;6.05;;;;;;;32.94;41.21;100336.81;1805906;77;28845;-81
2021/07/14 10:04:23;;;;;;;12.88;5.67;;;;;;;33.09;40.65;100339.28;1818661;78;21206;-81
2021/07/14 10:06:51;;;;;;;9.08;5.72;;;;;;;33.16;40.60;100333.83;1817224;78;21012;-80
2021/07/14 10:09:25;;;;;;;8.95;6.05;;;;;;;33.31;39.82;100341.24;1754898;80;22062;-80
2021/07/14 10:11:52;;;;;;;8.63;5.65;;;;;;;33.37;39.44;100336.60;1787728;80;21817;-80
2021/07/14 10:14:18;;;;;;;11.75;5.75;;;;;;;33.37;38.29;100330.58;1787521;80;21118;-80
2021/07/14 10:16:46;;;;;;;9.93;6.10;;;;;;;33.38;39.52;100334.95;1755361;80;21552;-82
2021/07/14 10:19:15;;;;;;;6.20;5.50;;;;;;;33.46;39.03;100328.94;1792040;77;21362;-81
2021/07/14 10:21:47;;;;;;;9.60;5.42;;;;;;;33.55;39.89;100328.66;1798472;78;21077;-81
2021/07/14 10:24:17;;;;;;;11.05;5.67;;;;;;;33.65;40.43;100329.74;1819097;78;22191;-80
2021/07/14 10:26:48;;;;;;;7.22;5.70;;;;;;;33.74;40.02;100333.57;1819656;78;20988;-80
2021/07/14 10:29:19;;;;;;;7.35;5.90;;;;;;;33.81;37.82;100334.94;1813115;77;21027;-82
2021/07/14 10:31:48;;;;;;;7.20;5.55;;;;;;;33.73;39.28;100335.48;1819670;78;21039;-79
2021/07/14 10:34:15;;;;;;;7.58;5.70;;;;;;;33.76;38.16;100338.22;1820216;78;21023;-81
2021/07/14 10:36:42;;;;;;;11.53;5.70;;;;;;;33.77;39.17;100336.56;1757147;78;21802;-78
2021/07/14 10:39:11;;;;;;;11.08;5.67;;;;;;;33.90;38.21;100340.70;1831932;77;20976;-77
2021/07/14 10:41:39;;;;;;;6.05;5.45;;;;;;;33.94;37.80;100335.48;1848211;77;21007;-78
2021/07/14 10:44:07;;;;;;;8.85;5.12;;;;;;;33.93;38.17;100336.03;1814810;77;20996;-78
2021/07/14 10:46:37;;;;;;;7.42;5.25;;;;;;;34.04;37.34;100332.16;1847855;77;21074;-78
2021/07/14 10:49:06;;;;;;;7.85;4.97;;;;;;;33.99;38.06;100336.86;1847450;77;22405;-78
2021/07/14 10:51:33;;;;;;;7.47;5.00;;;;;;;34.10;36.85;100332.44;1829390;77;21016;-79
2021/07/14 10:54:03;;;;;;;8.28;5.30;;;;;;;34.23;36.83;100334.30;1818656;78;21074;-78
2021/07/14 10:56:42;;;;;;;14.75;5.87;;;;;;;34.39;36.91;100334.55;1804035;78;21078;-79
2021/07/14 10:59:09;;;;;;;16.45;11.73;;;;;;;34.55;37.78;100326.54;1787604;80;21094;-81
2021/07/14 11:01:50;;;;;;;11.90;6.15;;;;;;;34.77;37.54;100329.44;1801570;78;21821;-80
2021/07/14 11:04:33;;;;;;;8.20;5.40;;;;;;;34.94;37.27;100328.55;1820128;78;20929;-77
2021/07/14 11:07:08;;;;;;;6.37;4.65;;;;;;;35.12;36.21;100329.20;1801750;77;20952;-77
2021/07/14 11:09:44;;;;;;;10.40;5.53;;;;;;;35.28;36.02;100338.16;1806185;78;20992;-77
2021/07/14 11:12:15;;;;;;;8.23;4.90;;;;;;;35.33;35.42;100335.39;1820147;78;20975;-77
2021/07/14 11:14:51;;;;;;;6.42;5.15;;;;;;;35.45;36.76;100332.30;1793005;79;21815;-77
2021/07/14 11:17:29;;;;;;;11.83;5.28;;;;;;;35.55;34.21;100330.83;1802602;77;20927;-77
2021/07/14 11:19:56;;;;;;;7.72;4.58;;;;;;;35.59;34.79;100329.69;1817030;79;21088;-77
2021/07/14 11:22:45;;;;;;;12.03;5.12;;;;;;;35.59;34.50;100331.06;1752840;79;21013;-77
2021/07/14 11:25:22;;;;;;;10.65;4.78;;;;;;;35.56;35.11;100333.28;1818340;78;20940;-77
2021/07/14 11:28:07;;;;;;;10.80;4.50;;;;;;;35.59;34.42;100329.69;1815485;77;21777;-79
2021/07/14 11:30:40;;;;;;;12.05;5.40;;;;;;;35.59;34.44;100335.18;1788537;80;21003;-78
2021/07/14 11:33:07;;;;;;;9.10;5.25;;;;;;;35.62;34.47;100331.32;1788486;80;21509;-77
2021/07/14 11:35:43;;;;;;;6.33;4.30;;;;;;;35.68;34.57;100331.52;1788888;80;21385;-77